Time;durP1;ratioP1;P1;durP2;ratioP2;P2;SDS_P1;SDS_P2;PMS_P1;PMS_P2;Temp;Humidity;BMP_temperature;BMP_pressure;BME280_temperature;BME280_humidity;BME280_pressure;Samples;Min_cycle;Max_cycle;Signal;HPM_P1;HPM_P2
2022/12/16 00:01:53;;;;;;;29.83;18.33;;;-7.00;99.90;;;;;;5098603;28;20190;-81
2022/12/16 00:04:20;;;;;;;31.80;18.13;;;-6.80;99.90;;;;;;5101203;28;20236;-81
2022/12/16 00:06:46;;;;;;;32.93;17.87;;;-7.10;99.90;;;;;;5098125;28;20587;-80
2022/12/16 00:09:13;;;;;;;30.27;17.50;;;-7.40;99.90;;;;;;5102057;28;20260;-81
2022/12/16 00:11:41;;;;;;;32.17;18.20;;;-7.20;99.90;;;;;;5096371;28;20197;-81
2022/12/16 00:14:08;;;;;;;31.77;17.87;;;-7.40;99.90;;;;;;5097714;28;20193;-80
2022/12/16 00:16:35;;;;;;;29.23;17.67;;;-7.50;99.90;;;;;;5103385;28;20705;-80
2022/12/16 00:19:02;;;;;;;30.10;16.97;;;-7.50;99.90;;;;;;5096952;28;20209;-84
2022/12/16 00:21:28;;;;;;;29.67;16.80;;;-7.50;99.90;;;;;;5102041;28;20261;-80
2022/12/16 00:23:55;;;;;;;31.57;17.87;;;-7.40;99.90;;;;;;5104044;28;20233;-80
2022/12/16 00:26:23;;;;;;;30.23;17.37;;;-7.50;99.90;;;;;;5102478;28;20270;-83
2022/12/16 00:28:51;;;;;;;28.47;17.43;;;-7.40;99.90;;;;;;5104162;28;20261;-80
2022/12/16 00:31:18;;;;;;;31.43;17.37;;;-7.50;99.90;;;;;;5099548;28;20209;-80
2022/12/16 00:33:44;;;;;;;29.80;17.57;;;-7.60;99.90;;;;;;5103822;28;20198;-80
2022/12/16 00:36:11;;;;;;;28.97;18.07;;;-7.70;99.90;;;;;;5101825;28;20198;-82
2022/12/16 00:38:38;;;;;;;32.00;17.77;;;-7.60;99.90;;;;;;5103015;28;20221;-82
2022/12/16 00:41:05;;;;;;;29.53;17.83;;;-7.60;99.90;;;;;;5100821;28;20198;-81
2022/12/16 00:43:32;;;;;;;30.97;17.87;;;-7.60;99.90;;;;;;5102105;28;20682;-80
2022/12/16 00:46:00;;;;;;;34.30;18.80;;;-7.60;99.90;;;;;;5101739;28;20285;-82
2022/12/16 00:48:27;;;;;;;29.10;18.10;;;-7.70;99.90;;;;;;5097521;28;20217;-81
2022/12/16 00:50:55;;;;;;;30.57;17.63;;;-7.70;99.90;;;;;;5101176;28;20194;-81
2022/12/16 00:53:23;;;;;;;31.83;17.83;;;-7.70;99.90;;;;;;5102326;28;20406;-80
2022/12/16 00:55:50;;;;;;;29.17;16.93;;;-7.60;99.90;;;;;;5101907;28;20204;-83
2022/12/16 00:58:16;;;;;;;28.50;16.53;;;-7.40;99.90;;;;;;5102836;28;20308;-82
2022/12/16 01:00:43;;;;;;;28.60;17.67;;;-7.50;99.90;;;;;;5101632;28;20193;-80
2022/12/16 01:03:12;;;;;;;27.97;16.33;;;-7.60;99.90;;;;;;5102632;28;20189;-82
2022/12/16 01:05:39;;;;;;;29.87;16.73;;;-7.70;99.90;;;;;;5098943;28;20205;-81
2022/12/16 01:08:06;;;;;;;32.37;17.17;;;-7.90;99.90;;;;;;5102088;28;20745;-80
2022/12/16 01:10:32;;;;;;;31.30;18.20;;;-7.70;99.90;;;;;;5099229;28;20201;-81
2022/12/16 01:12:59;;;;;;;30.27;17.30;;;-7.60;99.90;;;;;;5102914;28;20204;-80
2022/12/16 01:15:26;;;;;;;32.43;18.70;;;-7.80;99.90;;;;;;5101793;28;20197;-80
2022/12/16 01:17:53;;;;;;;31.37;17.63;;;-7.80;99.90;;;;;;5102751;28;20217;-82
2022/12/16 01:20:21;;;;;;;29.33;17.27;;;-7.90;99.90;;;;;;5100248;28;20709;-81
2022/12/16 01:22:48;;;;;;;29.03;16.63;;;-7.80;99.90;;;;;;5100530;28;20261;-81
2022/12/16 01:25:15;;;;;;;31.77;17.83;;;-7.80;99.90;;;;;;5102489;28;20213;-81
2022/12/16 01:27:42;;;;;;;31.27;17.37;;;-7.60;99.90;;;;;;5101698;28;20221;-81
2022/12/16 01:30:10;;;;;;;31.00;17.50;;;-7.60;99.90;;;;;;5102581;28;20257;-81
2022/12/16 01:32:37;;;;;;;29.87;17.27;;;-7.60;99.90;;;;;;5098760;28;20280;-81
2022/12/16 01:35:05;;;;;;;30.80;17.17;;;-7.60;99.90;;;;;;5102742;28;20568;-81
2022/12/16 01:37:33;;;;;;;30.87;17.43;;;-7.60;99.90;;;;;;5090514;28;20608;-80
2022/12/16 01:40:00;;;;;;;32.37;16.97;;;-7.60;99.90;;;;;;5096996;28;20203;-81
2022/12/16 01:42:30;;;;;;;28.23;16.97;;;-7.60;99.90;;;;;;5097548;28;20201;-80
2022/12/16 01:44:57;;;;;;;29.60;16.77;;;-7.60;99.90;;;;;;5103748;28;20218;-80
2022/12/16 01:47:27;;;;;;;30.40;16.43;;;-7.60;99.90;;;;;;5111846;28;20648;-80
2022/12/16 01:49:59;;;;;;;27.90;16.00;;;-7.40;99.90;;;;;;5100881;28;20197;-82
2022/12/16 01:52:31;;;;;;;30.13;16.90;;;-7.40;99.90;;;;;;5094729;28;20650;-80
2022/12/16 01:55:03;;;;;;;27.90;16.23;;;-7.60;99.90;;;;;;5085463;28;20285;-82
2022/12/16 01:57:36;;;;;;;29.53;16.27;;;-7.80;99.90;;;;;;5095792;28;20221;-81
2022/12/16 02:00:06;;;;;;;30.57;15.33;;;-7.90;99.90;;;;;;5100725;28;20674;-82
2022/12/16 02:02:32;;;;;;;29.67;15.67;;;-7.80;99.90;;;;;;5094820;28;20259;-80
2022/12/16 02:07:48;;;;;;;30.77;16.90;;;-7.80;99.90;;;;;;5096135;28;20754;-80
2022/12/16 02:10:17;;;;;;;27.47;16.33;;;-8.10;99.90;;;;;;5100741;28;20269;-82
2022/12/16 02:12:50;;;;;;;30.43;16.90;;;-8.30;99.90;;;;;;5096848;28;20210;-82
2022/12/16 02:15:31;;;;;;;27.57;16.13;;;-8.30;99.90;;;;;;5098852;28;20664;-80
2022/12/16 02:18:05;;;;;;;29.53;17.73;;;-8.20;99.90;;;;;;5093178;28;20220;-80
2022/12/16 02:20:58;;;;;;;34.23;19.00;;;-8.30;99.90;;;;;;5091656;28;20201;-82
2022/12/16 02:24:07;;;;;;;28.50;16.97;;;-8.00;99.90;;;;;;5100893;28;20276;-81
2022/12/16 02:27:16;;;;;;;34.37;17.37;;;-7.90;99.90;;;;;;5059470;28;20220;-80
2022/12/16 02:30:05;;;;;;;30.57;16.33;;;-8.00;99.90;;;;;;5097972;28;20205;-82
2022/12/16 02:32:40;;;;;;;27.40;15.50;;;-8.10;99.90;;;;;;5103817;28;20201;-81
2022/12/16 02:35:14;;;;;;;29.90;16.20;;;-8.10;99.90;;;;;;5092130;28;20647;-83
2022/12/16 02:37:49;;;;;;;29.03;16.20;;;-8.20;99.90;;;;;;5094993;28;20224;-81
2022/12/16 02:40:24;;;;;;;29.23;16.40;;;-8.10;99.90;;;;;;5099684;28;20204;-83
2022/12/16 02:42:57;;;;;;;40.67;18.63;;;-8.10;99.90;;;;;;5103749;28;20201;-81
2022/12/16 02:45:29;;;;;;;30.20;16.33;;;-7.90;99.90;;;;;;5099969;28;20209;-81
2022/12/16 02:47:58;;;;;;;28.70;16.70;;;-8.00;99.90;;;;;;5102624;28;20232;-80
2022/12/16 02:50:30;;;;;;;28.57;16.33;;;-7.90;99.90;;;;;;5091261;28;20260;-82
2022/12/16 02:52:59;;;;;;;32.40;17.00;;;-7.90;99.90;;;;;;5104385;28;20194;-81
2022/12/16 02:55:32;;;;;;;32.13;17.77;;;-8.10;99.90;;;;;;5101250;28;20687;-82
2022/12/16 02:58:09;;;;;;;32.50;16.70;;;-8.10;99.90;;;;;;5091931;28;20229;-81
2022/12/16 03:00:45;;;;;;;31.80;16.97;;;-8.00;99.90;;;;;;5098266;28;20868;-80
2022/12/16 03:03:20;;;;;;;31.47;16.67;;;-8.10;99.90;;;;;;5102329;28;20644;-81
2022/12/16 03:05:49;;;;;;;30.20;16.40;;;-8.10;99.90;;;;;;5092412;28;20221;-81
2022/12/16 03:08:22;;;;;;;31.03;16.70;;;-8.20;99.90;;;;;;5105363;28;20692;-80
2022/12/16 03:10:52;;;;;;;26.53;15.67;;;-8.20;99.90;;;;;;5099032;28;20556;-81
2022/12/16 03:13:20;;;;;;;27.17;16.13;;;-8.10;99.90;;;;;;5094979;28;20209;-81
2022/12/16 03:15:49;;;;;;;30.63;17.10;;;-7.90;99.90;;;;;;5099212;28;20557;-80
2022/12/16 03:18:19;;;;;;;29.13;16.53;;;-7.90;99.90;;;;;;5091869;28;20279;-81
2022/12/16 03:20:50;;;;;;;29.77;16.00;;;-8.00;99.90;;;;;;5097619;28;20198;-81
2022/12/16 03:23:21;;;;;;;31.23;16.10;;;-7.90;99.90;;;;;;5096415;28;20202;-81
2022/12/16 03:25:50;;;;;;;27.67;16.50;;;-8.10;99.90;;;;;;5103404;28;20226;-82
2022/12/16 03:28:28;;;;;;;28.20;16.53;;;-8.10;99.90;;;;;;5096037;28;20214;-80
2022/12/16 03:31:03;;;;;;;32.23;16.00;;;-8.10;99.90;;;;;;5101461;28;20208;-80
2022/12/16 03:33:35;;;;;;;29.23;16.53;;;-8.10;99.90;;;;;;5095023;28;20291;-80
2022/12/16 03:36:07;;;;;;;33.23;15.60;;;-8.20;99.90;;;;;;5099421;28;20673;-81
2022/12/16 03:38:34;;;;;;;27.97;15.60;;;-8.30;99.90;;;;;;5102771;28;20241;-80
2022/12/16 03:41:02;;;;;;;27.70;16.10;;;-8.40;99.90;;;;;;5101033;28;20202;-80
2022/12/16 03:43:30;;;;;;;26.40;15.13;;;-8.40;99.90;;;;;;5084741;28;20206;-80
2022/12/16 03:46:01;;;;;;;29.37;15.73;;;-8.40;99.90;;;;;;5101952;28;20217;-83
2022/12/16 03:48:27;;;;;;;28.30;15.47;;;-8.40;99.90;;;;;;5094263;28;20225;-81
2022/12/16 03:50:55;;;;;;;27.30;15.40;;;-8.40;99.90;;;;;;5098601;28;20978;-80
2022/12/16 03:53:25;;;;;;;26.37;15.40;;;-8.50;99.90;;;;;;5083375;28;20202;-80
2022/12/16 03:55:52;;;;;;;28.90;15.77;;;-8.50;99.90;;;;;;5101147;28;20638;-80
2022/12/16 03:58:19;;;;;;;25.57;14.57;;;-8.40;99.90;;;;;;5102779;28;20240;-81
2022/12/16 04:00:46;;;;;;;27.73;16.10;;;-8.30;99.90;;;;;;5096028;28;20198;-83
2022/12/16 04:03:13;;;;;;;27.87;16.20;;;-8.20;99.90;;;;;;5094472;28;20293;-81
2022/12/16 04:05:39;;;;;;;29.13;14.93;;;-8.10;99.90;;;;;;5099411;28;20222;-82
2022/12/16 04:08:08;;;;;;;27.60;15.33;;;-8.10;99.90;;;;;;5098982;28;20218;-85
2022/12/16 04:24:19;;;;;;;28.23;16.10;;;-8.10;99.90;;;;;;5083219;28;20229;-80
2022/12/16 04:29:31;;;;;;;28.30;16.37;;;-8.20;99.90;;;;;;5089329;28;20544;-80
2022/12/16 04:31:58;;;;;;;28.67;17.00;;;-8.00;99.90;;;;;;5103642;28;20664;-83
2022/12/16 04:34:24;;;;;;;33.07;17.53;;;-8.00;99.90;;;;;;5109430;28;20195;-81
